Roanoke, Ohio
Current Conditions -  °F | °C
As of 11:23 AM on Friday 31 Oct 2014 (Local Time) from KPHD Reporting Station
Overcast Overcast  
Wind Chill:   Ceiling: 2900
Heat Index:   Visibility: 10mi
Dew Point:   Wind: 8mph
Humidity: 79%   Direction: 180°S
Pressure: 29.94"   Gusts: NA
Location:  40.3767°N, 81.2875°W
Report Text: KPHD 311523Z AUTO 18007KT 10SM SCT016 BKN029 OVC042 08/04 A2994 RMK AO2 RAE17 P0000 T00780044
Loading
Personal Weather Stations






























Interactive Weather Map
Tropical Storm Tracking
New forecast layout! Learn more

10-Day Weather Forecast

Advertisements
Track Severe Weather on mobile